createdAt,value
2018-03-02T00:00:56.862Z,0
2018-03-02T00:01:57.455Z,0
2018-03-02T00:02:58.050Z,0
2018-03-02T00:03:58.649Z,0
2018-03-02T00:04:59.233Z,0
2018-03-02T00:05:59.875Z,0
2018-03-02T00:07:00.468Z,0
2018-03-02T00:08:01.055Z,0
2018-03-02T00:09:01.652Z,0
2018-03-02T00:10:02.258Z,0
2018-03-02T00:11:02.865Z,0
2018-03-02T00:12:03.433Z,0
2018-03-02T00:13:04.017Z,0
2018-03-02T00:14:04.609Z,0
2018-03-02T00:15:05.197Z,0
2018-03-02T00:16:05.794Z,0
2018-03-02T00:17:06.383Z,0
2018-03-02T00:18:06.983Z,0
2018-03-02T00:19:07.582Z,0
2018-03-02T00:20:08.170Z,0
2018-03-02T00:21:08.763Z,0
2018-03-02T00:22:09.356Z,0
2018-03-02T00:23:09.955Z,0
2018-03-02T00:24:10.553Z,0
2018-03-02T00:25:11.139Z,0
2018-03-02T00:26:11.739Z,0
2018-03-02T00:27:12.332Z,0
2018-03-02T00:28:12.933Z,0
2018-03-02T00:29:13.515Z,0
2018-03-02T00:30:14.102Z,0
2018-03-02T00:31:14.706Z,0
2018-03-02T00:32:15.304Z,0
2018-03-02T00:33:15.898Z,0
2018-03-02T00:34:16.503Z,0
2018-03-02T00:35:17.101Z,0
2018-03-02T00:36:17.688Z,0
2018-03-02T00:37:18.292Z,0
2018-03-02T00:38:18.876Z,0
2018-03-02T00:39:19.469Z,0
2018-03-02T00:40:20.065Z,0
2018-03-02T00:41:20.647Z,0
2018-03-02T00:42:21.232Z,0
2018-03-02T00:43:21.834Z,0
2018-03-02T00:44:22.418Z,0
2018-03-02T00:45:23.015Z,0
2018-03-02T00:46:23.603Z,0
2018-03-02T00:47:24.196Z,0
2018-03-02T00:48:24.789Z,0
2018-03-02T00:49:25.379Z,0
2018-03-02T00:50:25.966Z,0
2018-03-02T00:51:26.548Z,0
2018-03-02T00:52:27.149Z,0
2018-03-02T00:53:27.741Z,0
2018-03-02T00:54:28.340Z,0
2018-03-02T00:55:28.927Z,0
2018-03-02T00:56:29.517Z,0
2018-03-02T00:57:30.112Z,0
2018-03-02T00:58:30.710Z,0
2018-03-02T00:59:31.294Z,0
2018-03-02T01:00:31.896Z,0
2018-03-02T01:01:32.516Z,0
2018-03-02T01:02:33.097Z,0
2018-03-02T01:03:33.692Z,0
2018-03-02T01:04:34.277Z,0
2018-03-02T01:05:34.864Z,0
2018-03-02T01:06:35.452Z,0
2018-03-02T01:07:36.033Z,0
2018-03-02T01:08:36.616Z,0
2018-03-02T01:09:37.216Z,0
2018-03-02T01:10:37.822Z,0
2018-03-02T01:11:38.470Z,0
2018-03-02T01:12:39.006Z,0
2018-03-02T01:13:39.601Z,0
2018-03-02T01:14:40.190Z,0
2018-03-02T01:15:40.780Z,0
2018-03-02T01:16:41.380Z,0
2018-03-02T01:17:41.966Z,0
2018-03-02T01:18:42.555Z,0
2018-03-02T01:19:43.148Z,0
2018-03-02T01:20:43.734Z,0
2018-03-02T01:21:44.326Z,0
2018-03-02T01:22:44.920Z,0
2018-03-02T01:23:45.522Z,0
2018-03-02T01:24:46.104Z,0
2018-03-02T01:25:46.689Z,0
2018-03-02T01:26:47.289Z,0
2018-03-02T01:27:47.877Z,0
2018-03-02T01:28:48.469Z,0
2018-03-02T01:29:49.068Z,0
2018-03-02T01:30:49.662Z,0
2018-03-02T01:31:50.255Z,0
2018-03-02T01:32:50.849Z,0
2018-03-02T01:33:51.441Z,0
2018-03-02T01:34:52.030Z,0
2018-03-02T01:35:52.618Z,0
2018-03-02T01:36:53.222Z,0
2018-03-02T01:37:53.816Z,0
2018-03-02T01:38:54.405Z,0
2018-03-02T01:39:55.006Z,0
2018-03-02T01:40:55.594Z,0
2018-03-02T01:41:56.191Z,0
2018-03-02T01:42:56.784Z,0
2018-03-02T01:43:57.373Z,0
2018-03-02T01:44:57.960Z,0
2018-03-02T01:45:58.556Z,0
2018-03-02T01:46:59.149Z,0
2018-03-02T01:47:59.740Z,0
2018-03-02T01:49:00.328Z,0
2018-03-02T01:50:00.922Z,0
2018-03-02T01:51:01.515Z,0
2018-03-02T01:52:02.102Z,0
2018-03-02T01:53:02.687Z,0
2018-03-02T01:54:03.282Z,0
2018-03-02T01:55:03.875Z,0
2018-03-02T01:56:04.471Z,0
2018-03-02T01:57:05.056Z,0
2018-03-02T01:58:05.639Z,0
2018-03-02T01:59:06.239Z,0
2018-03-02T02:00:06.833Z,0
2018-03-02T02:01:07.423Z,0
2018-03-02T02:02:08.012Z,0
2018-03-02T02:03:08.599Z,0
2018-03-02T02:04:09.182Z,0
2018-03-02T02:05:09.771Z,0
2018-03-02T02:06:10.361Z,0
2018-03-02T02:07:10.973Z,0
2018-03-02T02:08:11.544Z,0
2018-03-02T02:09:12.125Z,0
2018-03-02T02:10:12.715Z,0
2018-03-02T02:11:13.310Z,0
2018-03-02T02:12:13.894Z,0
2018-03-02T02:13:14.478Z,0
2018-03-02T02:14:15.065Z,0
2018-03-02T02:15:15.646Z,0
2018-03-02T02:16:16.233Z,0
2018-03-02T02:17:16.815Z,0
2018-03-02T02:18:17.400Z,0
2018-03-02T02:19:17.993Z,0
2018-03-02T02:20:18.574Z,0
2018-03-02T02:21:19.181Z,0
2018-03-02T02:22:19.769Z,0
2018-03-02T02:23:20.352Z,0
2018-03-02T02:24:20.938Z,0
2018-03-02T02:25:21.546Z,0
2018-03-02T02:26:22.126Z,0
2018-03-02T02:27:22.705Z,0
2018-03-02T02:28:23.289Z,0
2018-03-02T02:29:23.876Z,0
2018-03-02T02:30:24.467Z,0
2018-03-02T02:31:25.056Z,0
2018-03-02T02:32:25.642Z,0
2018-03-02T02:33:26.267Z,0
2018-03-02T02:34:26.817Z,0
2018-03-02T02:35:27.399Z,0
2018-03-02T02:36:27.985Z,0
2018-03-02T02:37:28.567Z,0
2018-03-02T02:38:29.151Z,0
2018-03-02T02:39:29.737Z,0
2018-03-02T02:40:30.326Z,0
2018-03-02T02:41:30.914Z,0
2018-03-02T02:42:31.506Z,0
2018-03-02T02:43:32.100Z,0
2018-03-02T02:44:32.683Z,0
2018-03-02T02:45:33.275Z,0
2018-03-02T02:46:33.854Z,0
2018-03-02T02:47:34.442Z,0
2018-03-02T02:48:35.030Z,0
2018-03-02T02:49:35.613Z,0
2018-03-02T02:50:36.200Z,0
2018-03-02T02:51:36.783Z,0
2018-03-02T02:52:37.374Z,0
2018-03-02T02:53:37.972Z,0
2018-03-02T02:54:38.560Z,0
2018-03-02T02:55:39.151Z,0
2018-03-02T02:56:39.736Z,0
2018-03-02T02:57:40.330Z,0
2018-03-02T02:58:40.919Z,0
2018-03-02T02:59:41.508Z,0
2018-03-02T03:00:42.089Z,0
2018-03-02T03:01:42.679Z,0
2018-03-02T03:02:43.260Z,0
2018-03-02T03:03:43.848Z,0
2018-03-02T03:04:44.442Z,0
2018-03-02T03:05:45.024Z,0
2018-03-02T03:06:45.621Z,0
2018-03-02T03:07:46.204Z,0
2018-03-02T03:08:46.799Z,0
2018-03-02T03:09:47.393Z,0
2018-03-02T03:10:47.975Z,0
2018-03-02T03:11:48.572Z,0
2018-03-02T03:12:49.165Z,0
2018-03-02T03:13:49.756Z,0
2018-03-02T03:14:50.348Z,0
2018-03-02T03:15:50.945Z,0
2018-03-02T03:16:51.543Z,0
2018-03-02T03:17:52.135Z,0
2018-03-02T03:18:52.724Z,0
2018-03-02T03:19:53.315Z,0
2018-03-02T03:20:53.908Z,0
2018-03-02T03:21:54.499Z,0
2018-03-02T03:22:55.094Z,0
2018-03-02T03:23:55.692Z,0
2018-03-02T03:24:56.275Z,0
2018-03-02T03:25:56.914Z,0
2018-03-02T03:26:57.457Z,0
2018-03-02T03:27:58.048Z,0
2018-03-02T03:28:58.636Z,0
2018-03-02T03:29:59.221Z,0
2018-03-02T03:30:59.813Z,0
2018-03-02T03:32:00.406Z,0
2018-03-02T03:33:00.997Z,0
2018-03-02T03:34:01.595Z,0
2018-03-02T03:35:02.181Z,0
2018-03-02T03:36:02.766Z,0
2018-03-02T03:37:03.358Z,0
2018-03-02T03:38:03.937Z,0
2018-03-02T03:39:04.530Z,0
2018-03-02T03:40:05.120Z,0
2018-03-02T03:41:05.708Z,0
2018-03-02T03:42:06.292Z,0
2018-03-02T03:43:06.881Z,0
2018-03-02T03:44:07.463Z,0
2018-03-02T03:45:08.048Z,0
2018-03-02T03:46:08.639Z,0
2018-03-02T03:47:09.219Z,0
2018-03-02T03:48:09.803Z,0
2018-03-02T03:49:10.386Z,0
2018-03-02T03:50:10.978Z,0
2018-03-02T03:51:11.579Z,0
2018-03-02T03:52:12.169Z,0
2018-03-02T03:53:12.764Z,0
2018-03-02T03:54:13.353Z,0
2018-03-02T03:55:13.944Z,0
2018-03-02T03:56:14.624Z,0
2018-03-02T03:57:15.122Z,0
2018-03-02T03:58:15.723Z,0
2018-03-02T03:59:16.302Z,0
2018-03-02T04:00:16.884Z,0
2018-03-02T04:01:17.476Z,0
2018-03-02T04:02:18.065Z,0
2018-03-02T04:03:18.648Z,0
2018-03-02T04:04:19.228Z,0
2018-03-02T04:05:19.812Z,0
2018-03-02T04:06:20.397Z,0
2018-03-02T04:07:20.990Z,0
2018-03-02T04:08:21.576Z,0
2018-03-02T04:09:22.169Z,0
2018-03-02T04:10:22.753Z,0
2018-03-02T04:11:23.343Z,0
2018-03-02T04:12:23.934Z,0
2018-03-02T04:13:24.528Z,0
2018-03-02T04:14:25.127Z,0
2018-03-02T04:15:25.738Z,0
2018-03-02T04:16:26.306Z,0
2018-03-02T04:17:26.899Z,0
2018-03-02T04:18:27.491Z,0
2018-03-02T04:19:28.072Z,0
2018-03-02T04:20:28.655Z,0
2018-03-02T04:21:29.247Z,0
2018-03-02T04:22:29.837Z,0
2018-03-02T04:23:30.422Z,0
2018-03-02T04:24:31.052Z,0
2018-03-02T04:25:31.609Z,0
2018-03-02T04:26:32.187Z,0
2018-03-02T04:27:32.775Z,0
2018-03-02T04:28:33.371Z,0
2018-03-02T04:29:33.988Z,0
2018-03-02T04:30:34.549Z,0
2018-03-02T04:31:35.139Z,0
2018-03-02T04:32:35.736Z,0
2018-03-02T04:33:36.319Z,0
2018-03-02T04:34:36.904Z,0
2018-03-02T04:35:37.493Z,0
2018-03-02T04:36:38.088Z,0
2018-03-02T04:37:38.674Z,0
2018-03-02T04:38:39.273Z,0
2018-03-02T04:39:39.868Z,0
2018-03-02T04:40:40.451Z,0
2018-03-02T04:41:41.041Z,0
2018-03-02T04:42:41.630Z,0
2018-03-02T04:43:42.228Z,0
2018-03-02T04:44:42.819Z,0
2018-03-02T04:45:43.414Z,0
2018-03-02T04:46:43.999Z,0
2018-03-02T04:47:44.591Z,0
2018-03-02T04:48:45.177Z,0
2018-03-02T04:49:45.768Z,0
2018-03-02T04:50:46.346Z,0
2018-03-02T04:51:46.938Z,0
2018-03-02T04:52:47.517Z,0
2018-03-02T04:53:48.104Z,0
2018-03-02T04:54:48.690Z,0
2018-03-02T04:55:49.273Z,0
2018-03-02T04:56:49.859Z,0
2018-03-02T04:57:50.455Z,0
2018-03-02T04:58:51.044Z,0
2018-03-02T04:59:51.633Z,0
2018-03-02T05:00:52.220Z,0
2018-03-02T05:01:52.815Z,0
2018-03-02T05:02:53.398Z,0
2018-03-02T05:03:53.987Z,0
2018-03-02T05:04:54.581Z,0
2018-03-02T05:05:55.171Z,0
2018-03-02T05:06:55.768Z,0
2018-03-02T05:07:56.362Z,0
2018-03-02T05:08:56.944Z,0
2018-03-02T05:09:57.537Z,0
2018-03-02T05:10:58.122Z,0
2018-03-02T05:11:58.706Z,0
2018-03-02T05:12:59.295Z,0
2018-03-02T05:13:59.887Z,0
2018-03-02T05:15:00.470Z,0
2018-03-02T05:16:01.055Z,0
2018-03-02T05:17:01.646Z,0
2018-03-02T05:18:02.232Z,0
2018-03-02T05:19:02.829Z,0
2018-03-02T05:20:03.419Z,0
2018-03-02T05:21:04.021Z,0
2018-03-02T05:22:04.608Z,0
2018-03-02T05:23:05.201Z,0
2018-03-02T05:24:05.783Z,0
2018-03-02T05:25:06.367Z,0
2018-03-02T05:26:06.952Z,0
2018-03-02T05:27:07.542Z,0
2018-03-02T05:28:08.125Z,0
2018-03-02T05:29:08.708Z,0
2018-03-02T05:30:09.302Z,0
2018-03-02T05:31:09.943Z,0
2018-03-02T05:32:10.516Z,0
2018-03-02T05:33:11.100Z,0
2018-03-02T05:34:11.693Z,0
2018-03-02T05:35:12.287Z,0
2018-03-02T05:36:12.871Z,0
2018-03-02T05:37:13.466Z,0
2018-03-02T05:38:14.063Z,0
2018-03-02T05:39:14.652Z,0
2018-03-02T05:40:15.241Z,0
2018-03-02T05:41:15.827Z,0
2018-03-02T05:42:16.425Z,0
2018-03-02T05:43:17.009Z,0
2018-03-02T05:44:17.599Z,0
2018-03-02T05:45:18.186Z,0
2018-03-02T05:46:18.773Z,0
2018-03-02T05:47:19.371Z,0
2018-03-02T05:48:19.959Z,0
2018-03-02T05:49:20.549Z,0
2018-03-02T05:50:21.165Z,0
2018-03-02T05:51:21.729Z,0
2018-03-02T05:52:22.321Z,0
2018-03-02T05:53:22.924Z,0
2018-03-02T05:54:23.534Z,0
2018-03-02T05:55:24.112Z,0
2018-03-02T05:56:24.699Z,0
2018-03-02T05:57:25.286Z,0
2018-03-02T05:58:25.883Z,0
2018-03-02T05:59:26.479Z,0
2018-03-02T06:00:27.068Z,0
2018-03-02T06:01:27.658Z,0
2018-03-02T06:02:28.259Z,0
2018-03-02T06:03:28.851Z,0
2018-03-02T06:04:29.434Z,0
2018-03-02T06:05:30.034Z,0
2018-03-02T06:06:30.641Z,0
2018-03-02T06:07:31.263Z,0
2018-03-02T06:08:31.808Z,0
2018-03-02T06:09:32.403Z,0
2018-03-02T06:10:32.990Z,5
2018-03-02T06:11:33.580Z,5
2018-03-02T06:12:34.179Z,5
2018-03-02T06:13:34.774Z,5
2018-03-02T06:14:35.369Z,5
2018-03-02T06:15:35.961Z,5
2018-03-02T06:16:36.591Z,5
2018-03-02T06:17:37.146Z,5
2018-03-02T06:18:37.734Z,10
2018-03-02T06:19:38.320Z,10
2018-03-02T06:20:38.915Z,10
2018-03-02T06:21:39.503Z,10
2018-03-02T06:22:40.149Z,10
2018-03-02T06:23:40.707Z,10
2018-03-02T06:24:41.295Z,10
2018-03-02T06:25:41.889Z,15
2018-03-02T06:26:42.471Z,15
2018-03-02T06:27:43.056Z,15
2018-03-02T06:28:43.653Z,15
2018-03-02T06:29:44.250Z,20
2018-03-02T06:30:44.847Z,20
2018-03-02T06:31:45.438Z,20
2018-03-02T06:32:46.033Z,20
2018-03-02T06:33:46.620Z,25
2018-03-02T06:34:47.206Z,25
2018-03-02T06:35:47.791Z,25
2018-03-02T06:36:48.384Z,25
2018-03-02T06:37:48.976Z,25
2018-03-02T06:38:49.568Z,30
2018-03-02T06:39:50.164Z,30
2018-03-02T06:40:50.757Z,30
2018-03-02T06:41:51.355Z,30
2018-03-02T06:42:51.945Z,35
2018-03-02T06:43:52.550Z,35
2018-03-02T06:44:53.143Z,40
2018-03-02T06:45:53.736Z,40
2018-03-02T06:46:54.323Z,40
2018-03-02T06:47:54.920Z,45
2018-03-02T06:48:55.512Z,45
2018-03-02T06:49:56.110Z,50
2018-03-02T06:50:56.702Z,50
2018-03-02T06:51:57.302Z,55
2018-03-02T06:52:57.893Z,55
2018-03-02T06:53:58.487Z,60
2018-03-02T06:54:59.087Z,60
2018-03-02T06:55:59.680Z,65
2018-03-02T06:57:00.265Z,65
2018-03-02T06:58:00.865Z,65
2018-03-02T06:59:01.498Z,65
2018-03-02T07:00:02.060Z,70
2018-03-02T07:01:02.656Z,75
2018-03-02T07:02:03.253Z,75
2018-03-02T07:03:03.841Z,80
2018-03-02T07:04:04.437Z,80
2018-03-02T07:05:05.025Z,85
2018-03-02T07:06:05.619Z,85
2018-03-02T07:07:06.211Z,90
2018-03-02T07:08:06.805Z,90
2018-03-02T07:09:07.397Z,95
2018-03-02T07:10:07.980Z,95
2018-03-02T07:11:08.581Z,100
2018-03-02T07:12:09.169Z,105
2018-03-02T07:13:09.767Z,105
2018-03-02T07:14:10.361Z,105
2018-03-02T07:15:10.951Z,105
2018-03-02T07:16:11.545Z,110
2018-03-02T07:17:12.135Z,110
2018-03-02T07:18:12.735Z,110
2018-03-02T07:19:13.333Z,110
2018-03-02T07:20:13.925Z,110
2018-03-02T07:21:14.514Z,110
2018-03-02T07:22:15.101Z,115
2018-03-02T07:23:15.689Z,115
2018-03-02T07:24:16.278Z,120
2018-03-02T07:25:16.866Z,120
2018-03-02T07:26:17.458Z,125
2018-03-02T07:27:18.059Z,130
2018-03-02T07:28:18.657Z,135
2018-03-02T07:29:19.250Z,145
2018-03-02T07:30:19.852Z,150
2018-03-02T07:31:20.455Z,155
2018-03-02T07:32:21.049Z,160
2018-03-02T07:33:21.640Z,160
2018-03-02T07:34:22.233Z,165
2018-03-02T07:35:22.828Z,160
2018-03-02T07:36:23.426Z,160
2018-03-02T07:37:24.043Z,165
2018-03-02T07:38:24.646Z,165
2018-03-02T07:39:25.211Z,165
2018-03-02T07:40:25.815Z,165
2018-03-02T07:41:26.433Z,165
2018-03-02T07:42:27.285Z,165
2018-03-02T07:43:27.880Z,170
2018-03-02T07:44:28.477Z,170
2018-03-02T07:45:29.074Z,170
2018-03-02T07:46:29.675Z,170
2018-03-02T07:47:30.261Z,170
2018-03-02T07:48:30.859Z,170
2018-03-02T07:49:31.457Z,170
2018-03-02T07:50:32.050Z,175
2018-03-02T07:51:32.651Z,180
2018-03-02T07:52:33.266Z,180
2018-03-02T07:53:33.892Z,180
2018-03-02T07:54:34.464Z,185
2018-03-02T07:55:35.101Z,190
2018-03-02T07:56:35.696Z,190
2018-03-02T07:57:36.293Z,195
2018-03-02T07:58:36.885Z,205
2018-03-02T07:59:37.478Z,205
2018-03-02T08:00:38.092Z,205
2018-03-02T08:01:38.690Z,210
2018-03-02T08:02:39.285Z,210
2018-03-02T08:03:39.888Z,210
2018-03-02T08:04:40.491Z,215
2018-03-02T08:05:41.092Z,215
2018-03-02T08:06:41.685Z,215
2018-03-02T08:07:42.286Z,220
2018-03-02T08:08:42.881Z,215
2018-03-02T08:09:43.518Z,220
2018-03-02T08:10:44.081Z,225
2018-03-02T08:11:44.689Z,225
2018-03-02T08:12:45.280Z,230
2018-03-02T08:13:45.887Z,235
2018-03-02T08:14:46.489Z,235
2018-03-02T08:15:47.086Z,240
2018-03-02T08:16:47.681Z,240
2018-03-02T08:17:48.275Z,245
2018-03-02T08:18:48.879Z,245
2018-03-02T08:19:49.486Z,245
2018-03-02T08:20:50.085Z,245
2018-03-02T08:21:50.676Z,245
2018-03-02T08:22:51.334Z,245
2018-03-02T08:23:51.924Z,245
2018-03-02T08:24:52.524Z,245
2018-03-02T08:25:53.121Z,240
2018-03-02T08:26:53.728Z,240
2018-03-02T08:27:54.318Z,235
2018-03-02T08:28:54.919Z,235
2018-03-02T08:29:55.513Z,240
2018-03-02T08:30:56.112Z,245
2018-03-02T08:31:56.708Z,255
2018-03-02T08:32:57.312Z,265
2018-03-02T08:33:57.912Z,275
2018-03-02T08:34:58.512Z,280
2018-03-02T08:35:59.122Z,285
2018-03-02T08:36:59.727Z,285
2018-03-02T08:38:00.320Z,290
2018-03-02T08:39:00.982Z,295
2018-03-02T08:40:01.592Z,290
2018-03-02T08:41:02.200Z,295
2018-03-02T08:42:02.801Z,295
2018-03-02T08:43:03.399Z,305
2018-03-02T08:44:03.992Z,310
2018-03-02T08:45:04.586Z,315
2018-03-02T08:46:05.185Z,320
2018-03-02T08:47:05.794Z,320
2018-03-02T08:48:06.410Z,325
2018-03-02T08:49:07.017Z,325
2018-03-02T08:50:07.614Z,330
2018-03-02T08:51:08.214Z,335
2018-03-02T08:52:08.809Z,335
2018-03-02T08:53:09.410Z,340
2018-03-02T08:54:10.014Z,345
2018-03-02T08:55:10.621Z,350
2018-03-02T08:56:11.294Z,355
2018-03-02T08:57:11.941Z,355
2018-03-02T08:58:12.496Z,360
2018-03-02T08:59:13.096Z,360
2018-03-02T09:00:13.688Z,365
2018-03-02T09:01:14.299Z,365
2018-03-02T09:02:14.889Z,370
2018-03-02T09:03:15.516Z,370
2018-03-02T09:04:16.126Z,375
2018-03-02T09:05:16.732Z,380
2018-03-02T09:06:17.314Z,385
2018-03-02T09:07:17.905Z,390
2018-03-02T09:08:18.509Z,395
2018-03-02T09:09:19.098Z,400
2018-03-02T09:11:20.318Z,420
2018-03-02T09:12:20.913Z,425
2018-03-02T09:13:21.528Z,435
2018-03-02T09:14:22.118Z,445
2018-03-02T09:15:22.725Z,455
2018-03-02T09:16:23.319Z,465
2018-03-02T09:17:23.913Z,475
2018-03-02T09:18:24.539Z,490
2018-03-02T09:19:25.131Z,490
2018-03-02T09:20:25.731Z,490
2018-03-02T09:21:26.430Z,490
2018-03-02T09:22:27.016Z,490
2018-03-02T09:23:27.616Z,495
2018-03-02T09:24:28.211Z,505
2018-03-02T09:25:28.829Z,510
2018-03-02T09:26:29.446Z,515
2018-03-02T09:27:30.077Z,520
2018-03-02T09:28:30.657Z,520
2018-03-02T09:29:31.268Z,530
2018-03-02T09:30:31.863Z,525
2018-03-02T09:31:32.479Z,525
2018-03-02T09:32:33.052Z,525
2018-03-02T09:33:33.650Z,530
2018-03-02T09:34:34.264Z,535
2018-03-02T09:35:34.849Z,545
2018-03-02T09:36:35.441Z,550
2018-03-02T09:37:36.039Z,565
2018-03-02T09:38:36.650Z,570
2018-03-02T09:39:37.257Z,580
2018-03-02T09:40:37.891Z,585
2018-03-02T09:41:38.474Z,595
2018-03-02T09:42:39.120Z,595
2018-03-02T09:43:39.683Z,590
2018-03-02T09:44:40.269Z,590
2018-03-02T09:45:40.878Z,595
2018-03-02T09:46:41.486Z,590
2018-03-02T09:47:42.175Z,590
2018-03-02T09:48:42.784Z,600
2018-03-02T09:49:43.389Z,600
2018-03-02T09:50:44.000Z,600
2018-03-02T09:51:44.611Z,605
2018-03-02T09:52:45.197Z,610
2018-03-02T09:53:45.801Z,615
2018-03-02T09:54:46.436Z,620
2018-03-02T09:55:47.031Z,625
2018-03-02T09:56:47.622Z,625
2018-03-02T09:57:48.232Z,625
2018-03-02T09:58:48.828Z,625
2018-03-02T09:59:49.428Z,625
2018-03-02T10:00:50.036Z,620
2018-03-02T10:01:50.658Z,620
2018-03-02T10:02:51.240Z,615
2018-03-02T10:03:51.839Z,620
2018-03-02T10:04:52.455Z,620
2018-03-02T10:05:53.051Z,625
2018-03-02T10:06:53.651Z,630
2018-03-02T10:07:54.255Z,625
2018-03-02T10:08:54.862Z,610
2018-03-02T10:09:55.477Z,610
2018-03-02T10:10:56.312Z,595
2018-03-02T10:11:56.910Z,585
2018-03-02T10:12:57.532Z,575
2018-03-02T10:13:58.141Z,565
2018-03-02T10:14:58.756Z,560
2018-03-02T10:15:59.357Z,550
2018-03-02T10:16:59.951Z,550
2018-03-02T10:18:00.548Z,550
2018-03-02T10:19:01.155Z,540
2018-03-02T10:20:01.784Z,535
2018-03-02T10:21:02.382Z,535
2018-03-02T10:22:02.996Z,540
2018-03-02T10:23:03.612Z,540
2018-03-02T10:24:04.192Z,540
2018-03-02T10:25:04.790Z,535
2018-03-02T10:26:05.387Z,535
2018-03-02T10:27:05.986Z,525
2018-03-02T10:28:06.595Z,520
2018-03-02T10:29:07.263Z,515
2018-03-02T10:30:07.876Z,515
2018-03-02T10:31:08.462Z,510
2018-03-02T10:32:09.069Z,510
2018-03-02T10:33:09.666Z,505
2018-03-02T10:34:10.271Z,500
2018-03-02T10:35:10.893Z,500
2018-03-02T10:36:11.502Z,495
2018-03-02T10:37:12.095Z,495
2018-03-02T10:38:12.699Z,500
2018-03-02T10:39:13.327Z,495
2018-03-02T10:40:13.933Z,495
2018-03-02T10:41:14.513Z,495
2018-03-02T10:42:15.128Z,490
2018-03-02T10:43:15.736Z,490
2018-03-02T10:44:16.326Z,485
2018-03-02T10:45:16.933Z,480
2018-03-02T10:46:17.528Z,470
2018-03-02T10:47:18.345Z,465
2018-03-02T10:48:18.950Z,465
2018-03-02T10:49:19.561Z,460
2018-03-02T10:50:20.163Z,460
2018-03-02T10:51:20.756Z,465
2018-03-02T10:52:21.348Z,465
2018-03-02T10:53:21.963Z,470
2018-03-02T10:54:22.571Z,475
2018-03-02T10:55:23.183Z,475
2018-03-02T10:56:23.793Z,475
2018-03-02T10:57:24.399Z,475
2018-03-02T10:58:25.040Z,480
2018-03-02T10:59:25.657Z,475
2018-03-02T11:00:26.266Z,465
2018-03-02T11:01:26.848Z,465
2018-03-02T11:02:27.504Z,465
2018-03-02T11:03:28.092Z,455
2018-03-02T11:04:28.682Z,460
2018-03-02T11:05:29.288Z,460
2018-03-02T11:06:29.888Z,465
2018-03-02T11:07:30.504Z,470
2018-03-02T11:08:31.098Z,475
2018-03-02T11:09:31.735Z,480
2018-03-02T11:10:32.326Z,485
2018-03-02T11:11:32.930Z,490
2018-03-02T11:12:33.542Z,495
2018-03-02T11:13:34.133Z,505
2018-03-02T11:14:34.748Z,500
2018-03-02T11:15:35.349Z,500
2018-03-02T11:16:35.960Z,500
2018-03-02T11:17:36.579Z,500
2018-03-02T11:18:37.213Z,505
2018-03-02T11:19:37.840Z,505
2018-03-02T11:20:38.470Z,505
2018-03-02T11:21:39.052Z,510
2018-03-02T11:22:39.891Z,515
2018-03-02T11:23:40.522Z,515
2018-03-02T11:24:41.115Z,515
2018-03-02T11:25:41.713Z,515
2018-03-02T11:26:42.369Z,510
2018-03-02T11:27:42.929Z,505
2018-03-02T11:28:43.530Z,500
2018-03-02T11:29:44.155Z,495
2018-03-02T11:30:44.740Z,485
2018-03-02T11:31:45.354Z,475
2018-03-02T11:32:46.035Z,470
2018-03-02T11:33:46.705Z,470
2018-03-02T11:34:47.291Z,470
2018-03-02T11:35:47.897Z,480
2018-03-02T11:36:48.492Z,490
2018-03-02T11:37:49.081Z,500
2018-03-02T11:38:49.692Z,510
2018-03-02T11:39:50.288Z,515
2018-03-02T11:40:50.899Z,515
2018-03-02T11:41:51.507Z,515
2018-03-02T11:42:52.109Z,515
2018-03-02T11:43:52.708Z,505
2018-03-02T11:44:53.303Z,490
2018-03-02T11:45:53.902Z,475
2018-03-02T11:46:54.509Z,455
2018-03-02T11:47:55.135Z,445
2018-03-02T11:48:55.716Z,425
2018-03-02T11:49:56.319Z,400
2018-03-02T11:50:56.935Z,385
2018-03-02T11:51:57.520Z,365
2018-03-02T11:52:58.122Z,350
2018-03-02T11:53:58.719Z,335
2018-03-02T11:54:59.316Z,330
2018-03-02T11:55:59.956Z,330
2018-03-02T11:57:00.558Z,335
2018-03-02T11:58:01.154Z,340
2018-03-02T11:59:01.752Z,350
2018-03-02T12:00:02.353Z,365
2018-03-02T12:01:02.954Z,375
2018-03-02T12:02:03.555Z,390
2018-03-02T12:03:04.157Z,400
2018-03-02T12:04:04.772Z,415
2018-03-02T12:05:05.375Z,425
2018-03-02T12:06:06.012Z,430
2018-03-02T12:07:06.591Z,435
2018-03-02T12:08:07.226Z,440
2018-03-02T12:09:07.812Z,435
2018-03-02T12:10:08.405Z,435
2018-03-02T12:11:09.223Z,435
2018-03-02T12:12:09.846Z,430
2018-03-02T12:13:10.458Z,430
2018-03-02T12:14:11.049Z,425
2018-03-02T12:15:11.660Z,425
2018-03-02T12:16:12.252Z,420
2018-03-02T12:17:12.870Z,415
2018-03-02T12:18:13.449Z,415
2018-03-02T12:19:14.044Z,405
2018-03-02T12:20:14.695Z,405
2018-03-02T12:21:15.258Z,390
2018-03-02T12:22:15.867Z,385
2018-03-02T12:23:16.490Z,390
2018-03-02T12:24:17.104Z,380
2018-03-02T12:25:17.693Z,375
2018-03-02T12:26:18.288Z,375
2018-03-02T12:27:18.895Z,370
2018-03-02T12:28:19.503Z,365
2018-03-02T12:29:20.125Z,365
2018-03-02T12:30:20.728Z,360
2018-03-02T12:31:21.354Z,360
2018-03-02T12:32:21.949Z,360
2018-03-02T12:33:22.555Z,355
2018-03-02T12:34:23.141Z,355
2018-03-02T12:35:23.787Z,350
2018-03-02T12:36:24.374Z,345
2018-03-02T12:37:25.044Z,335
2018-03-02T12:38:25.610Z,335
2018-03-02T12:39:26.210Z,330
2018-03-02T12:40:26.808Z,330
2018-03-02T12:41:27.414Z,330
2018-03-02T12:42:28.057Z,335
2018-03-02T12:43:28.660Z,340
2018-03-02T12:44:29.333Z,340
2018-03-02T12:45:29.863Z,345
2018-03-02T12:46:30.489Z,345
2018-03-02T12:47:31.073Z,350
2018-03-02T12:48:31.682Z,355
2018-03-02T12:49:32.307Z,365
2018-03-02T12:50:32.899Z,370
2018-03-02T12:51:33.486Z,380
2018-03-02T12:52:34.092Z,390
2018-03-02T12:53:34.713Z,400
2018-03-02T12:54:35.354Z,405
2018-03-02T12:55:35.896Z,415
2018-03-02T12:56:36.494Z,430
2018-03-02T12:57:37.096Z,435
2018-03-02T12:58:37.740Z,435
2018-03-02T12:59:38.311Z,435
2018-03-02T13:00:38.927Z,430
2018-03-02T13:01:39.530Z,425
2018-03-02T13:02:40.128Z,415
2018-03-02T13:03:40.724Z,405
2018-03-02T13:04:41.347Z,395
2018-03-02T13:05:41.945Z,390
2018-03-02T13:06:42.539Z,385
2018-03-02T13:07:43.164Z,380
2018-03-02T13:08:43.753Z,380
2018-03-02T13:09:44.362Z,380
2018-03-02T13:10:44.977Z,385
2018-03-02T13:11:45.559Z,390
2018-03-02T13:12:46.221Z,400
2018-03-02T13:13:46.826Z,405
2018-03-02T13:14:47.425Z,420
2018-03-02T13:15:48.024Z,435
2018-03-02T13:16:48.638Z,445
2018-03-02T13:17:49.272Z,455
2018-03-02T13:18:49.919Z,455
2018-03-02T13:19:50.506Z,455
2018-03-02T13:20:51.093Z,450
2018-03-02T13:21:51.700Z,440
2018-03-02T13:22:52.336Z,425
2018-03-02T13:23:52.918Z,420
2018-03-02T13:24:53.523Z,415
2018-03-02T13:25:54.119Z,420
2018-03-02T13:26:54.749Z,415
2018-03-02T13:27:55.351Z,410
2018-03-02T13:28:55.960Z,405
2018-03-02T13:29:56.555Z,400
2018-03-02T13:30:57.173Z,390
2018-03-02T13:31:57.771Z,385
2018-03-02T13:32:58.386Z,385
2018-03-02T13:33:58.957Z,385
2018-03-02T13:34:59.579Z,390
2018-03-02T13:36:00.159Z,385
2018-03-02T13:37:00.790Z,385
2018-03-02T13:38:01.418Z,385
2018-03-02T13:39:02.028Z,390
2018-03-02T13:40:02.624Z,385
2018-03-02T13:41:03.218Z,385
2018-03-02T13:42:03.812Z,390
2018-03-02T13:43:04.417Z,395
2018-03-02T13:44:05.013Z,400
2018-03-02T13:45:05.618Z,410
2018-03-02T13:46:06.221Z,415
2018-03-02T13:47:06.832Z,420
2018-03-02T13:48:07.415Z,425
2018-03-02T13:49:08.020Z,430
2018-03-02T13:50:08.656Z,430
2018-03-02T13:51:09.310Z,430
2018-03-02T13:52:09.923Z,430
2018-03-02T13:53:10.517Z,430
2018-03-02T13:54:11.121Z,430
2018-03-02T13:55:11.754Z,430
2018-03-02T13:56:12.344Z,430
2018-03-02T13:57:12.944Z,435
2018-03-02T13:58:13.544Z,435
2018-03-02T13:59:14.153Z,440
2018-03-02T14:00:14.780Z,440
2018-03-02T14:01:15.383Z,440
2018-03-02T14:02:15.972Z,445
2018-03-02T14:03:16.571Z,445
2018-03-02T14:04:17.186Z,450
2018-03-02T14:05:17.760Z,460
2018-03-02T14:06:18.370Z,465
2018-03-02T14:07:18.961Z,470
2018-03-02T14:08:19.573Z,475
2018-03-02T14:09:20.217Z,480
2018-03-02T14:10:20.801Z,480
2018-03-02T14:11:21.393Z,485
2018-03-02T14:12:22.000Z,490
2018-03-02T14:13:22.600Z,495
2018-03-02T14:14:23.196Z,500
2018-03-02T14:15:23.807Z,505
2018-03-02T14:16:24.570Z,505
2018-03-02T14:17:25.219Z,510
2018-03-02T14:18:25.810Z,510
2018-03-02T14:19:26.432Z,505
2018-03-02T14:20:27.035Z,505
2018-03-02T14:21:27.633Z,505
2018-03-02T14:22:28.267Z,505
2018-03-02T14:23:28.878Z,500